Ana Sayfa
METAR-TAF:

METAR-TAF

Havaalanları :

Frederick, Oklahoma, Amerika Birleşik Devletleri

Enlem: 34-20-40N, Boylam: 098-58-59W, yükseklik: 382 m

Güncel hava durumu gözlemi

Rapor saat 18:53 UTC de 46 dakika önce yapıldı.
Rüzgar güneybatıdan 9 kt
Sıcaklık 28°C
Nem 35%
Basınç 1010 hPa
Görüş mesafesi: 16.1 km
Açık gökyüzü

METAR: KFDR 071853Z AUTO 22009KT 10SM CLR 28/11 A2982 RMK AO2 SLP083 T02830111

Saat: 14:39 (19:39 UTC)


TAF: eksik

4.000'den fazla havaalanı için hava durumu gözlemleri ve tahminleri (METAR ve TAF raporları).

Kullanılabilir istasyonlar harita üzerinde sarı ve kırmızı noktalarla gösterilir.

İstasyonun adını görmek için fareyi noktanın üzerinde gezdirin.

Sonrasında hava gözlem ve tahminlerini görmek için tıklayın.

Haritayı değiştirmek için: yaklaştırmak için siyah artı işaretli yeşil düğmeye ve uzaklaştırmak için de eksi işaretli düğmeye hızla tıklayın; bitişik haritalar için yeşil okları kullanın.


METAR-TAF: